createdAt,value
2018-02-02T00:02:12.354Z,99.90
2018-02-02T00:04:40.017Z,99.90
2018-02-02T00:07:07.696Z,99.90
2018-02-02T00:09:35.397Z,99.90
2018-02-02T00:12:03.058Z,99.90
2018-02-02T00:14:30.741Z,99.90
2018-02-02T00:16:59.170Z,99.90
2018-02-02T00:19:26.788Z,99.90
2018-02-02T00:21:55.221Z,99.90
2018-02-02T00:24:22.934Z,99.90
2018-02-02T00:26:50.658Z,99.90
2018-02-02T00:29:18.360Z,99.90
2018-02-02T00:31:46.041Z,99.90
2018-02-02T00:34:13.789Z,99.90
2018-02-02T00:36:41.468Z,99.90
2018-02-02T00:39:09.134Z,99.90
2018-02-02T00:41:36.770Z,99.90
2018-02-02T00:44:04.450Z,99.90
2018-02-02T00:46:32.121Z,99.90
2018-02-02T00:48:59.806Z,99.90
2018-02-02T00:51:33.244Z,99.90
2018-02-02T00:54:01.677Z,99.90
2018-02-02T00:56:29.351Z,99.90
2018-02-02T00:58:56.987Z,99.90
2018-02-02T01:01:24.637Z,99.90
2018-02-02T01:03:52.290Z,99.90
2018-02-02T01:06:19.947Z,99.90
2018-02-02T01:08:47.613Z,99.90
2018-02-02T01:11:15.287Z,99.90
2018-02-02T01:13:42.971Z,99.90
2018-02-02T01:16:10.638Z,99.90
2018-02-02T01:18:38.269Z,99.90
2018-02-02T01:21:05.959Z,99.90
2018-02-02T01:23:33.581Z,99.90
2018-02-02T01:26:01.259Z,99.90
2018-02-02T01:28:28.896Z,99.90
2018-02-02T01:30:57.354Z,99.90
2018-02-02T01:33:25.820Z,99.90
2018-02-02T01:35:53.506Z,99.90
2018-02-02T01:38:21.190Z,99.90
2018-02-02T01:40:48.858Z,99.90
2018-02-02T01:43:16.555Z,99.90
2018-02-02T01:45:44.221Z,99.90
2018-02-02T01:48:20.315Z,99.90
2018-02-02T01:50:50.565Z,99.90
2018-02-02T01:53:18.251Z,99.90
2018-02-02T01:55:45.938Z,99.90
2018-02-02T01:58:13.590Z,99.90
2018-02-02T02:00:41.281Z,99.90
2018-02-02T02:03:09.700Z,99.90
2018-02-02T02:05:37.366Z,99.90
2018-02-02T02:08:05.044Z,99.90
2018-02-02T02:10:33.502Z,99.90
2018-02-02T02:13:01.161Z,99.90
2018-02-02T02:15:28.841Z,99.90
2018-02-02T02:17:56.521Z,99.90
2018-02-02T02:20:25.205Z,99.90
2018-02-02T02:22:52.847Z,99.90
2018-02-02T02:25:20.494Z,99.90
2018-02-02T02:27:48.147Z,99.90
2018-02-02T02:30:15.848Z,99.90
2018-02-02T02:32:43.507Z,99.90
2018-02-02T02:35:11.146Z,99.90
2018-02-02T02:37:38.818Z,99.90
2018-02-02T02:40:06.477Z,99.90
2018-02-02T02:42:34.099Z,99.90
2018-02-02T02:45:02.538Z,99.90
2018-02-02T02:47:30.219Z,99.90
2018-02-02T02:49:57.871Z,99.90
2018-02-02T02:52:25.547Z,99.90
2018-02-02T02:54:53.221Z,99.90
2018-02-02T02:57:21.645Z,99.90
2018-02-02T02:59:49.309Z,99.90
2018-02-02T03:02:17.070Z,99.90
2018-02-02T03:04:44.728Z,99.90
2018-02-02T03:07:12.411Z,99.90
2018-02-02T03:09:40.057Z,99.90
2018-02-02T03:12:07.701Z,99.90
2018-02-02T03:14:35.378Z,99.90
2018-02-02T03:17:03.027Z,99.90
2018-02-02T03:19:30.700Z,99.90
2018-02-02T03:21:58.381Z,99.90
2018-02-02T03:24:26.024Z,99.90
2018-02-02T03:26:53.673Z,99.90
2018-02-02T03:29:21.311Z,99.90
2018-02-02T03:31:48.990Z,99.90
2018-02-02T03:34:16.673Z,99.90
2018-02-02T03:36:44.318Z,99.90
2018-02-02T03:39:11.998Z,99.90
2018-02-02T03:41:39.633Z,99.90
2018-02-02T03:44:07.309Z,99.90
2018-02-02T03:46:34.933Z,99.90
2018-02-02T03:49:03.341Z,99.90
2018-02-02T03:51:31.000Z,99.90
2018-02-02T03:53:58.628Z,99.90
2018-02-02T03:56:26.310Z,99.90
2018-02-02T03:58:54.719Z,99.90
2018-02-02T04:01:22.366Z,99.90
2018-02-02T04:03:50.051Z,99.90
2018-02-02T04:06:17.701Z,99.90
2018-02-02T04:08:45.364Z,99.90
2018-02-02T04:11:13.006Z,99.90
2018-02-02T04:13:41.432Z,99.90
2018-02-02T04:16:09.100Z,99.90
2018-02-02T04:18:36.771Z,99.90
2018-02-02T04:21:04.412Z,99.90
2018-02-02T04:23:32.077Z,99.90
2018-02-02T04:25:59.797Z,99.90
2018-02-02T04:28:27.483Z,99.90
2018-02-02T04:30:55.111Z,99.90
2018-02-02T04:33:23.541Z,99.90
2018-02-02T04:35:51.224Z,99.90
2018-02-02T04:38:18.898Z,99.90
2018-02-02T04:40:46.533Z,99.90
2018-02-02T04:43:14.188Z,99.90
2018-02-02T04:45:41.845Z,99.90
2018-02-02T04:48:09.538Z,99.90
2018-02-02T04:50:37.226Z,99.90
2018-02-02T04:53:05.682Z,99.90
2018-02-02T04:55:33.389Z,99.90
2018-02-02T04:58:01.066Z,99.90
2018-02-02T05:00:28.723Z,99.90
2018-02-02T05:02:56.361Z,99.90
2018-02-02T05:05:24.853Z,99.90
2018-02-02T05:07:52.479Z,99.90
2018-02-02T05:10:20.159Z,99.90
2018-02-02T05:12:48.036Z,99.90
2018-02-02T05:15:16.460Z,99.90
2018-02-02T05:17:44.146Z,99.90
2018-02-02T05:20:11.832Z,99.90
2018-02-02T05:22:40.289Z,99.90
2018-02-02T05:25:07.939Z,99.90
2018-02-02T05:27:35.596Z,99.90
2018-02-02T05:30:03.271Z,99.90
2018-02-02T05:32:30.908Z,99.90
2018-02-02T05:34:58.581Z,99.90
2018-02-02T05:37:26.250Z,99.90
2018-02-02T05:39:53.932Z,99.90
2018-02-02T05:42:21.585Z,99.90
2018-02-02T05:44:49.244Z,99.90
2018-02-02T05:47:16.928Z,99.90
2018-02-02T05:49:45.370Z,99.90
2018-02-02T05:52:13.060Z,99.90
2018-02-02T05:54:41.485Z,99.90
2018-02-02T05:57:09.209Z,99.90
2018-02-02T05:59:37.635Z,99.90
2018-02-02T06:02:05.289Z,99.90
2018-02-02T06:04:32.975Z,99.90
2018-02-02T06:07:00.656Z,99.90
2018-02-02T06:09:28.324Z,99.90
2018-02-02T06:11:55.969Z,99.90
2018-02-02T06:14:23.631Z,99.90
2018-02-02T06:16:51.271Z,99.90
2018-02-02T06:19:30.909Z,99.90
2018-02-02T06:21:58.618Z,99.90
2018-02-02T06:24:26.343Z,99.90
2018-02-02T06:26:54.113Z,99.90
2018-02-02T06:29:21.850Z,99.90
2018-02-02T06:31:49.577Z,99.90
2018-02-02T06:34:17.387Z,99.90
2018-02-02T06:36:45.165Z,99.90
2018-02-02T06:39:12.871Z,99.90
2018-02-02T06:41:41.392Z,99.90
2018-02-02T06:44:09.172Z,99.90
2018-02-02T06:46:36.922Z,99.90
2018-02-02T06:49:04.693Z,99.90
2018-02-02T06:51:32.425Z,99.90
2018-02-02T06:54:00.131Z,99.90
2018-02-02T06:56:27.798Z,99.90
2018-02-02T06:58:55.491Z,99.90
2018-02-02T07:01:23.181Z,99.90
2018-02-02T07:03:50.829Z,99.90
2018-02-02T07:06:18.506Z,99.90
2018-02-02T07:08:46.260Z,99.90
2018-02-02T07:11:14.735Z,99.90
2018-02-02T07:13:42.412Z,99.90
2018-02-02T07:16:10.088Z,99.90
2018-02-02T07:18:37.772Z,99.90
2018-02-02T07:21:05.490Z,99.90
2018-02-02T07:23:33.177Z,99.90
2018-02-02T07:26:00.854Z,99.90
2018-02-02T07:28:28.528Z,99.90
2018-02-02T07:30:56.279Z,99.90
2018-02-02T07:33:23.957Z,99.90
2018-02-02T07:35:51.599Z,99.90
2018-02-02T07:38:19.231Z,99.90
2018-02-02T07:40:46.918Z,99.90
2018-02-02T07:43:14.646Z,99.90
2018-02-02T07:45:43.154Z,99.90
2018-02-02T07:48:10.798Z,99.90
2018-02-02T07:50:38.489Z,99.90
2018-02-02T07:53:06.134Z,99.90
2018-02-02T07:55:33.816Z,99.90
2018-02-02T07:58:01.495Z,99.90
2018-02-02T08:03:34.019Z,99.90
2018-02-02T08:06:01.667Z,99.90
2018-02-02T08:08:29.344Z,99.90
2018-02-02T08:10:56.977Z,99.90
2018-02-02T08:13:24.637Z,99.90
2018-02-02T08:15:52.276Z,99.90
2018-02-02T08:18:19.977Z,99.40
2018-02-02T08:20:47.638Z,99.30
2018-02-02T08:23:15.291Z,98.60
2018-02-02T08:25:42.975Z,99.10
2018-02-02T08:28:10.643Z,98.70
2018-02-02T08:30:43.365Z,97.40
2018-02-02T08:33:11.059Z,97.90
2018-02-02T08:35:38.743Z,98.30
2018-02-02T08:38:06.452Z,98.20
2018-02-02T08:40:34.108Z,97.80
2018-02-02T08:43:01.787Z,97.80
2018-02-02T08:45:29.450Z,96.60
2018-02-02T08:47:57.109Z,95.70
2018-02-02T08:50:24.739Z,94.30
2018-02-02T08:52:53.148Z,92.20
2018-02-02T08:55:20.797Z,92.20
2018-02-02T08:57:48.461Z,91.60
2018-02-02T09:00:16.092Z,91.70
2018-02-02T09:02:44.489Z,90.80
2018-02-02T09:05:12.157Z,90.80
2018-02-02T09:07:39.841Z,90.40
2018-02-02T09:10:07.518Z,90.30
2018-02-02T09:12:35.157Z,90.40
2018-02-02T09:15:02.814Z,89.00
2018-02-02T09:17:30.495Z,89.70
2018-02-02T09:19:58.160Z,88.90
2018-02-02T09:22:25.826Z,87.30
2018-02-02T09:24:53.478Z,86.40
2018-02-02T09:27:20.675Z,84.30
2018-02-02T09:29:48.362Z,82.80
2018-02-02T09:32:16.047Z,80.90
2018-02-02T09:34:43.699Z,81.00
2018-02-02T09:37:11.328Z,81.00
2018-02-02T09:39:39.739Z,79.30
2018-02-02T09:42:07.379Z,79.10
2018-02-02T09:44:35.821Z,78.00
2018-02-02T09:47:03.454Z,78.00
2018-02-02T09:49:31.099Z,78.40
2018-02-02T09:51:58.764Z,77.70
2018-02-02T09:54:26.448Z,77.60
2018-02-02T09:56:54.132Z,78.40
2018-02-02T09:59:21.820Z,78.70
2018-02-02T10:01:50.233Z,76.40
2018-02-02T10:04:17.912Z,76.40
2018-02-02T10:06:45.590Z,76.20
2018-02-02T10:09:13.275Z,75.60
2018-02-02T10:11:40.958Z,75.70
2018-02-02T10:14:09.370Z,76.50
2018-02-02T10:16:37.053Z,76.50
2018-02-02T10:19:04.688Z,75.90
2018-02-02T10:21:32.315Z,74.30
2018-02-02T10:24:00.729Z,73.30
2018-02-02T10:26:28.409Z,73.30
2018-02-02T10:28:56.077Z,73.90
2018-02-02T10:31:23.752Z,73.80
2018-02-02T10:33:51.398Z,74.00
2018-02-02T10:36:19.041Z,72.40
2018-02-02T10:38:46.746Z,73.50
2018-02-02T10:41:14.386Z,73.60
2018-02-02T10:43:42.025Z,74.10
2018-02-02T10:46:09.700Z,73.20
2018-02-02T10:48:37.333Z,73.80
2018-02-02T10:51:04.988Z,72.10
2018-02-02T10:53:32.661Z,72.00
2018-02-02T10:56:00.353Z,72.60
2018-02-02T10:58:28.005Z,71.90
2018-02-02T11:01:01.614Z,72.80
2018-02-02T11:06:33.627Z,71.50
2018-02-02T11:09:01.258Z,71.60
2018-02-02T11:11:28.902Z,72.30
2018-02-02T11:13:56.578Z,73.10
2018-02-02T11:16:24.222Z,72.70
2018-02-02T11:18:51.883Z,72.20
2018-02-02T11:21:19.551Z,72.90
2018-02-02T11:23:47.205Z,72.20
2018-02-02T11:26:14.845Z,71.20
2018-02-02T11:28:44.220Z,72.10
2018-02-02T11:31:11.909Z,72.10
2018-02-02T11:33:40.316Z,72.10
2018-02-02T11:36:07.970Z,72.00
2018-02-02T11:38:35.641Z,72.20
2018-02-02T11:41:03.334Z,72.50
2018-02-02T11:43:30.968Z,71.70
2018-02-02T11:45:58.595Z,73.40
2018-02-02T11:48:27.033Z,73.00
2018-02-02T11:50:54.885Z,73.00
2018-02-02T11:53:22.521Z,73.70
2018-02-02T11:55:50.195Z,73.50
2018-02-02T11:58:17.858Z,72.70
2018-02-02T12:00:45.505Z,73.70
2018-02-02T12:03:13.186Z,73.00
2018-02-02T12:05:40.815Z,72.90
2018-02-02T12:08:09.215Z,73.50
2018-02-02T12:10:36.858Z,73.50
2018-02-02T12:13:04.505Z,73.80
2018-02-02T12:15:32.920Z,74.50
2018-02-02T12:18:00.606Z,74.50
2018-02-02T12:20:28.284Z,74.50
2018-02-02T12:23:11.612Z,75.10
2018-02-02T12:25:42.925Z,74.50
2018-02-02T12:31:26.657Z,74.80
2018-02-02T12:37:05.413Z,75.30
2018-02-02T12:39:33.090Z,74.90
2018-02-02T12:42:00.769Z,74.90
2018-02-02T12:44:28.447Z,74.80
2018-02-02T12:46:56.103Z,73.90
2018-02-02T12:49:30.535Z,74.20
2018-02-02T12:51:58.209Z,75.60
2018-02-02T12:54:25.855Z,74.90
2018-02-02T12:56:53.533Z,76.10
2018-02-02T12:59:21.189Z,75.60
2018-02-02T13:01:48.865Z,76.60
2018-02-02T13:04:17.308Z,76.00
2018-02-02T13:06:44.958Z,76.00
2018-02-02T13:09:13.650Z,76.80
2018-02-02T13:11:41.317Z,77.40
2018-02-02T13:14:08.980Z,77.00
2018-02-02T13:16:37.421Z,76.50
2018-02-02T13:22:08.692Z,75.80
2018-02-02T13:24:36.347Z,75.80
2018-02-02T13:27:03.985Z,74.40
2018-02-02T13:29:31.632Z,75.50
2018-02-02T13:32:00.024Z,75.40
2018-02-02T13:34:27.686Z,75.40
2018-02-02T13:36:55.321Z,74.40
2018-02-02T13:39:22.985Z,75.50
2018-02-02T13:41:50.649Z,76.60
2018-02-02T13:44:18.293Z,76.40
2018-02-02T13:46:45.983Z,76.30
2018-02-02T13:49:14.410Z,76.90
2018-02-02T13:51:42.049Z,76.90
2018-02-02T13:54:09.726Z,76.50
2018-02-02T13:56:37.374Z,77.00
2018-02-02T13:59:05.004Z,77.40
2018-02-02T14:01:33.428Z,78.60
2018-02-02T14:04:01.057Z,78.60
2018-02-02T14:06:29.587Z,77.50
2018-02-02T14:08:57.229Z,77.50
2018-02-02T14:11:24.863Z,77.70
2018-02-02T14:13:52.521Z,77.60
2018-02-02T14:16:20.944Z,78.10
2018-02-02T14:18:48.821Z,78.10
2018-02-02T14:21:16.482Z,77.70
2018-02-02T14:23:44.120Z,77.10
2018-02-02T14:26:11.781Z,77.40
2018-02-02T14:28:39.446Z,77.50
2018-02-02T14:31:07.096Z,77.70
2018-02-02T14:33:34.711Z,78.20
2018-02-02T14:36:02.368Z,78.30
2018-02-02T14:38:30.038Z,78.90
2018-02-02T14:40:57.677Z,78.90
2018-02-02T14:43:25.321Z,78.10
2018-02-02T14:45:52.994Z,77.50
2018-02-02T14:48:20.654Z,77.50
2018-02-02T14:50:48.330Z,77.30
2018-02-02T14:53:15.988Z,77.70
2018-02-02T14:55:43.649Z,77.50
2018-02-02T14:58:11.308Z,77.80
2018-02-02T15:00:38.960Z,76.70
2018-02-02T15:03:06.590Z,75.10
2018-02-02T15:05:34.246Z,75.60
2018-02-02T15:08:02.648Z,74.20
2018-02-02T15:10:30.305Z,74.20
2018-02-02T15:12:57.960Z,73.70
2018-02-02T15:15:25.616Z,74.70
2018-02-02T15:17:53.272Z,75.30
2018-02-02T15:20:20.953Z,76.40
2018-02-02T15:22:51.587Z,76.20
2018-02-02T15:25:19.233Z,77.00
2018-02-02T15:27:46.898Z,77.40
2018-02-02T15:30:14.567Z,78.10
2018-02-02T15:32:42.230Z,77.00
2018-02-02T15:35:09.906Z,78.40
2018-02-02T15:37:37.525Z,77.60
2018-02-02T15:40:05.912Z,78.60
2018-02-02T15:42:33.602Z,78.50
2018-02-02T15:45:01.289Z,78.90
2018-02-02T15:47:28.974Z,78.60
2018-02-02T15:49:56.609Z,78.20
2018-02-02T15:52:24.246Z,77.90
2018-02-02T15:54:51.930Z,77.80
2018-02-02T15:57:20.361Z,79.00
2018-02-02T15:59:48.764Z,78.30
2018-02-02T16:02:16.427Z,78.30
2018-02-02T16:04:44.104Z,78.80
2018-02-02T16:07:11.751Z,78.30
2018-02-02T16:09:39.416Z,78.20
2018-02-02T16:12:07.044Z,78.50
2018-02-02T16:14:35.432Z,79.10
2018-02-02T16:17:03.844Z,78.90
2018-02-02T16:19:31.494Z,78.90
2018-02-02T16:21:59.145Z,78.90
2018-02-02T16:24:26.777Z,80.10
2018-02-02T16:26:54.446Z,79.40
2018-02-02T16:29:22.846Z,79.10
2018-02-02T16:31:50.482Z,79.00
2018-02-02T16:34:18.916Z,79.70
2018-02-02T16:36:46.554Z,79.70
2018-02-02T16:39:14.209Z,80.20
2018-02-02T16:41:41.874Z,79.80
2018-02-02T16:44:09.593Z,80.60
2018-02-02T16:46:37.254Z,79.40
2018-02-02T16:49:04.901Z,78.80
2018-02-02T16:51:32.594Z,78.00
2018-02-02T16:54:01.066Z,78.50
2018-02-02T16:56:28.763Z,78.50
2018-02-02T16:58:56.435Z,78.70
2018-02-02T17:01:24.080Z,79.80
2018-02-02T17:03:52.483Z,79.80
2018-02-02T17:06:20.139Z,79.80
2018-02-02T17:08:47.782Z,78.80
2018-02-02T17:11:16.213Z,78.70
2018-02-02T17:13:44.617Z,79.70
2018-02-02T17:16:12.293Z,79.10
2018-02-02T17:18:40.698Z,79.30
2018-02-02T17:21:08.341Z,79.30
2018-02-02T17:23:36.772Z,79.30
2018-02-02T17:26:04.409Z,79.90
2018-02-02T17:28:32.093Z,79.70
2018-02-02T17:30:59.758Z,79.10
2018-02-02T17:33:27.389Z,79.50
2018-02-02T17:35:55.063Z,79.00
2018-02-02T17:38:22.731Z,78.70
2018-02-02T17:40:50.384Z,79.10
2018-02-02T17:43:18.079Z,78.60
2018-02-02T17:45:45.733Z,78.60
2018-02-02T17:48:13.670Z,79.40
2018-02-02T17:50:41.361Z,80.50
2018-02-02T17:53:09.000Z,80.30
2018-02-02T17:55:36.662Z,80.00
2018-02-02T17:58:04.330Z,80.60
2018-02-02T18:00:34.659Z,79.90
2018-02-02T18:03:02.346Z,80.60
2018-02-02T18:05:29.997Z,80.30
2018-02-02T18:07:57.680Z,80.50
2018-02-02T18:10:25.341Z,80.30
2018-02-02T18:12:52.979Z,80.70
2018-02-02T18:15:20.640Z,80.70
2018-02-02T18:17:48.327Z,79.10
2018-02-02T18:20:16.049Z,79.10
2018-02-02T18:22:43.695Z,79.60
2018-02-02T18:25:11.345Z,80.30
2018-02-02T18:27:39.003Z,80.90
2018-02-02T18:30:07.427Z,80.40
2018-02-02T18:32:35.078Z,80.40
2018-02-02T18:35:02.715Z,80.40
2018-02-02T18:37:30.381Z,79.80
2018-02-02T18:39:58.013Z,80.00
2018-02-02T18:42:26.437Z,80.40
2018-02-02T18:44:54.107Z,81.00
2018-02-02T18:47:21.747Z,81.00
2018-02-02T18:49:49.405Z,81.50
2018-02-02T18:52:17.106Z,81.40
2018-02-02T18:54:44.840Z,81.40
2018-02-02T18:57:12.480Z,81.50
2018-02-02T18:59:40.890Z,82.10
2018-02-02T19:02:08.546Z,82.10
2018-02-02T19:04:36.189Z,82.70
2018-02-02T19:07:03.862Z,82.90
2018-02-02T19:09:31.493Z,82.00
2018-02-02T19:11:59.896Z,81.00
2018-02-02T19:14:27.543Z,81.00
2018-02-02T19:16:55.941Z,81.30
2018-02-02T19:19:23.599Z,81.20
2018-02-02T19:21:51.245Z,81.10
2018-02-02T19:24:19.674Z,81.00
2018-02-02T19:26:47.314Z,80.90
2018-02-02T19:29:14.971Z,81.20
2018-02-02T19:31:42.604Z,81.10
2018-02-02T19:34:11.016Z,81.40
2018-02-02T19:36:38.690Z,81.40
2018-02-02T19:39:06.311Z,81.20
2018-02-02T19:41:35.726Z,81.40
2018-02-02T19:44:03.391Z,81.30
2018-02-02T19:46:31.070Z,82.20
2018-02-02T19:48:58.712Z,82.50
2018-02-02T19:51:26.385Z,82.40
2018-02-02T19:53:54.049Z,81.90
2018-02-02T19:56:21.691Z,82.40
2018-02-02T19:58:50.137Z,82.70
2018-02-02T20:01:17.795Z,82.70
2018-02-02T20:03:45.437Z,82.20
2018-02-02T20:06:13.118Z,82.60
2018-02-02T20:08:40.789Z,82.40
2018-02-02T20:11:08.434Z,82.80
2018-02-02T20:13:36.094Z,83.40
2018-02-02T20:16:03.786Z,82.20
2018-02-02T20:18:31.418Z,82.20
2018-02-02T20:20:59.098Z,82.40
2018-02-02T20:23:26.754Z,82.90
2018-02-02T20:25:54.412Z,82.80
2018-02-02T20:28:22.981Z,83.30
2018-02-02T20:30:50.613Z,83.30
2018-02-02T20:33:18.255Z,83.60
2018-02-02T20:35:46.697Z,83.00
2018-02-02T20:38:14.370Z,83.00
2018-02-02T20:40:42.990Z,83.50
2018-02-02T20:43:11.188Z,84.90
2018-02-02T20:45:38.841Z,85.10
2018-02-02T20:48:06.484Z,85.10
2018-02-02T20:50:34.905Z,85.40
2018-02-02T20:53:02.551Z,85.40
2018-02-02T20:55:30.206Z,84.90
2018-02-02T20:57:57.886Z,85.80
2018-02-02T21:00:25.534Z,85.90
2018-02-02T21:02:53.178Z,86.70
2018-02-02T21:05:20.837Z,86.40
2018-02-02T21:07:49.290Z,86.90
2018-02-02T21:10:16.947Z,86.90
2018-02-02T21:12:44.586Z,86.40
2018-02-02T21:15:12.245Z,86.90
2018-02-02T21:17:39.881Z,87.60
2018-02-02T21:20:07.541Z,87.10
2018-02-02T21:22:35.169Z,87.10
2018-02-02T21:25:03.642Z,87.20
2018-02-02T21:27:32.044Z,86.80
2018-02-02T21:29:59.710Z,86.70
2018-02-02T21:32:27.385Z,86.50
2018-02-02T21:34:55.020Z,87.20
2018-02-02T21:37:24.957Z,87.70
2018-02-02T21:39:54.291Z,87.70
2018-02-02T21:42:22.490Z,87.70
2018-02-02T21:44:50.238Z,87.70
2018-02-02T21:47:17.864Z,87.80
2018-02-02T21:49:45.514Z,87.50
2018-02-02T21:52:13.204Z,87.90
2018-02-02T21:54:40.839Z,88.10
2018-02-02T21:57:08.542Z,88.90
2018-02-02T21:59:36.176Z,88.20
2018-02-02T22:02:03.821Z,88.40
2018-02-02T22:04:31.502Z,88.20
2018-02-02T22:06:59.162Z,87.10
2018-02-02T22:09:26.828Z,88.10
2018-02-02T22:11:54.477Z,89.50
2018-02-02T22:14:22.149Z,90.10
2018-02-02T22:16:49.780Z,90.50
2018-02-02T22:19:18.172Z,90.20
2018-02-02T22:21:45.837Z,90.20
2018-02-02T22:24:13.521Z,90.00
2018-02-02T22:26:41.189Z,90.10
2018-02-02T22:29:08.814Z,90.00
2018-02-02T22:31:37.249Z,90.10
2018-02-02T22:34:04.893Z,90.00
2018-02-02T22:36:32.567Z,90.10
2018-02-02T22:39:00.232Z,89.70
2018-02-02T22:41:27.919Z,90.20
2018-02-02T22:43:55.569Z,90.50
2018-02-02T22:46:23.221Z,90.30
2018-02-02T22:48:50.876Z,90.10
2018-02-02T22:51:19.521Z,90.00
2018-02-02T22:53:47.187Z,90.00
2018-02-02T22:56:14.842Z,90.20
2018-02-02T22:58:42.512Z,90.20
2018-02-02T23:01:10.161Z,90.30
2018-02-02T23:03:37.797Z,90.60
2018-02-02T23:06:05.456Z,91.00
2018-02-02T23:08:33.120Z,91.20
2018-02-02T23:11:01.550Z,91.40
2018-02-02T23:13:29.209Z,91.30
2018-02-02T23:15:56.836Z,91.20
2018-02-02T23:18:25.266Z,91.10
2018-02-02T23:20:52.908Z,91.10
2018-02-02T23:23:20.556Z,91.00
2018-02-02T23:25:48.190Z,91.10
2018-02-02T23:28:16.623Z,91.00
2018-02-02T23:30:44.255Z,91.00
2018-02-02T23:33:11.935Z,90.80
2018-02-02T23:35:39.577Z,90.80
2018-02-02T23:38:07.203Z,90.50
2018-02-02T23:40:34.851Z,90.50
2018-02-02T23:43:02.473Z,90.30
2018-02-02T23:45:30.093Z,90.30
2018-02-02T23:47:57.744Z,90.40
2018-02-02T23:50:25.592Z,90.40
2018-02-02T23:52:53.213Z,90.50
2018-02-02T23:55:20.851Z,90.50
2018-02-02T23:57:49.281Z,90.70
